sensor_id;sensor_type;location;lat;lon;timestamp;temperature;humidity
37844;DHT22;63793;57.632;18.292;2023-03-26T00:01:17;4.40;99.90
37844;DHT22;63793;57.632;18.292;2023-03-26T00:03:44;4.50;99.90
37844;DHT22;63793;57.632;18.292;2023-03-26T00:06:16;4.40;99.90
37844;DHT22;63793;57.632;18.292;2023-03-26T00:08:44;4.40;99.90
37844;DHT22;63793;57.632;18.292;2023-03-26T00:11:14;4.40;99.90
37844;DHT22;63793;57.632;18.292;2023-03-26T00:13:42;4.40;99.90
37844;DHT22;63793;57.632;18.292;2023-03-26T00:16:12;4.40;99.90
37844;DHT22;63793;57.632;18.292;2023-03-26T00:18:41;4.40;99.90
37844;DHT22;63793;57.632;18.292;2023-03-26T00:21:14;4.40;99.90
37844;DHT22;63793;57.632;18.292;2023-03-26T00:23:42;4.40;99.90
37844;DHT22;63793;57.632;18.292;2023-03-26T00:26:09;4.40;99.90
37844;DHT22;63793;57.632;18.292;2023-03-26T00:28:38;4.40;99.90
37844;DHT22;63793;57.632;18.292;2023-03-26T00:31:12;4.40;99.90
37844;DHT22;63793;57.632;18.292;2023-03-26T00:33:41;4.40;99.90
37844;DHT22;63793;57.632;18.292;2023-03-26T00:36:13;4.40;99.90
37844;DHT22;63793;57.632;18.292;2023-03-26T00:38:41;4.40;99.90
37844;DHT22;63793;57.632;18.292;2023-03-26T00:41:11;4.40;99.90
37844;DHT22;63793;57.632;18.292;2023-03-26T00:43:51;4.40;99.90
37844;DHT22;63793;57.632;18.292;2023-03-26T00:46:19;4.30;99.90
37844;DHT22;63793;57.632;18.292;2023-03-26T00:48:46;4.30;99.90
37844;DHT22;63793;57.632;18.292;2023-03-26T00:51:15;4.20;99.90
37844;DHT22;63793;57.632;18.292;2023-03-26T00:53:44;4.20;99.90
37844;DHT22;63793;57.632;18.292;2023-03-26T00:56:11;4.10;99.90
37844;DHT22;63793;57.632;18.292;2023-03-26T00:58:38;4.10;99.90
37844;DHT22;63793;57.632;18.292;2023-03-26T01:01:08;4.10;99.90
37844;DHT22;63793;57.632;18.292;2023-03-26T01:03:37;4.00;99.90
37844;DHT22;63793;57.632;18.292;2023-03-26T01:06:07;4.00;99.90
37844;DHT22;63793;57.632;18.292;2023-03-26T01:08:38;4.00;99.90
37844;DHT22;63793;57.632;18.292;2023-03-26T01:11:20;3.90;99.90
37844;DHT22;63793;57.632;18.292;2023-03-26T01:13:53;3.90;99.90
37844;DHT22;63793;57.632;18.292;2023-03-26T01:16:28;3.80;99.90
37844;DHT22;63793;57.632;18.292;2023-03-26T01:18:56;3.80;99.90
37844;DHT22;63793;57.632;18.292;2023-03-26T01:21:27;3.70;99.90
37844;DHT22;63793;57.632;18.292;2023-03-26T01:24:04;3.70;99.90
37844;DHT22;63793;57.632;18.292;2023-03-26T01:29:19;3.70;99.90
37844;DHT22;63793;57.632;18.292;2023-03-26T01:32:04;3.60;99.90
37844;DHT22;63793;57.632;18.292;2023-03-26T01:37:58;3.50;99.90
37844;DHT22;63793;57.632;18.292;2023-03-26T01:40:34;3.50;99.90
37844;DHT22;63793;57.632;18.292;2023-03-26T01:43:43;3.40;99.90
37844;DHT22;63793;57.632;18.292;2023-03-26T01:46:13;3.40;99.90
37844;DHT22;63793;57.632;18.292;2023-03-26T01:48:43;3.40;99.90
37844;DHT22;63793;57.632;18.292;2023-03-26T01:51:12;3.40;99.90
37844;DHT22;63793;57.632;18.292;2023-03-26T01:53:46;3.40;99.90
37844;DHT22;63793;57.632;18.292;2023-03-26T01:56:49;3.40;99.90
37844;DHT22;63793;57.632;18.292;2023-03-26T01:59:36;3.30;99.90
37844;DHT22;63793;57.632;18.292;2023-03-26T02:05:30;3.40;99.90
37844;DHT22;63793;57.632;18.292;2023-03-26T02:08:10;3.40;99.90
37844;DHT22;63793;57.632;18.292;2023-03-26T02:10:41;3.40;99.90
37844;DHT22;63793;57.632;18.292;2023-03-26T02:13:10;3.40;99.90
37844;DHT22;63793;57.632;18.292;2023-03-26T02:15:39;3.40;99.90
37844;DHT22;63793;57.632;18.292;2023-03-26T02:18:06;3.40;99.90
37844;DHT22;63793;57.632;18.292;2023-03-26T02:20:36;3.30;99.90
37844;DHT22;63793;57.632;18.292;2023-03-26T02:23:03;3.30;99.90
37844;DHT22;63793;57.632;18.292;2023-03-26T02:25:31;3.30;99.90
37844;DHT22;63793;57.632;18.292;2023-03-26T02:28:01;3.30;99.90
37844;DHT22;63793;57.632;18.292;2023-03-26T02:30:28;3.30;99.90
37844;DHT22;63793;57.632;18.292;2023-03-26T02:32:58;3.30;99.90
37844;DHT22;63793;57.632;18.292;2023-03-26T02:35:32;3.20;99.90
37844;DHT22;63793;57.632;18.292;2023-03-26T02:38:01;3.20;99.90
37844;DHT22;63793;57.632;18.292;2023-03-26T02:40:28;3.20;99.90
37844;DHT22;63793;57.632;18.292;2023-03-26T02:42:55;3.20;99.90
37844;DHT22;63793;57.632;18.292;2023-03-26T02:45:24;3.20;99.90
37844;DHT22;63793;57.632;18.292;2023-03-26T02:48:12;3.10;99.90
37844;DHT22;63793;57.632;18.292;2023-03-26T02:50:46;3.10;99.90
37844;DHT22;63793;57.632;18.292;2023-03-26T02:53:22;3.10;99.90
37844;DHT22;63793;57.632;18.292;2023-03-26T02:55:57;3.00;99.90
37844;DHT22;63793;57.632;18.292;2023-03-26T02:58:26;3.00;99.90
37844;DHT22;63793;57.632;18.292;2023-03-26T03:00:55;3.00;99.90
37844;DHT22;63793;57.632;18.292;2023-03-26T03:03:28;3.00;99.90
37844;DHT22;63793;57.632;18.292;2023-03-26T03:05:58;3.00;99.90
37844;DHT22;63793;57.632;18.292;2023-03-26T03:08:29;2.90;99.90
37844;DHT22;63793;57.632;18.292;2023-03-26T03:11:17;2.90;99.90
37844;DHT22;63793;57.632;18.292;2023-03-26T03:13:49;2.90;99.90
37844;DHT22;63793;57.632;18.292;2023-03-26T03:16:20;2.90;99.90
37844;DHT22;63793;57.632;18.292;2023-03-26T03:18:48;3.00;99.90
37844;DHT22;63793;57.632;18.292;2023-03-26T03:21:22;3.00;99.90
37844;DHT22;63793;57.632;18.292;2023-03-26T03:23:49;3.00;99.90
37844;DHT22;63793;57.632;18.292;2023-03-26T03:26:19;2.90;99.90
37844;DHT22;63793;57.632;18.292;2023-03-26T03:28:52;2.90;99.90
37844;DHT22;63793;57.632;18.292;2023-03-26T03:31:20;2.90;99.90
37844;DHT22;63793;57.632;18.292;2023-03-26T03:33:47;2.90;99.90
37844;DHT22;63793;57.632;18.292;2023-03-26T03:36:17;2.90;99.90
37844;DHT22;63793;57.632;18.292;2023-03-26T03:38:54;2.80;99.90
37844;DHT22;63793;57.632;18.292;2023-03-26T03:41:22;2.80;99.90
37844;DHT22;63793;57.632;18.292;2023-03-26T03:43:49;2.80;99.90
37844;DHT22;63793;57.632;18.292;2023-03-26T03:46:23;2.80;99.90
37844;DHT22;63793;57.632;18.292;2023-03-26T03:48:50;2.80;99.90
37844;DHT22;63793;57.632;18.292;2023-03-26T03:51:25;2.80;99.90
37844;DHT22;63793;57.632;18.292;2023-03-26T03:53:55;2.70;99.90
37844;DHT22;63793;57.632;18.292;2023-03-26T03:56:41;2.70;99.90
37844;DHT22;63793;57.632;18.292;2023-03-26T03:59:14;2.70;99.90
37844;DHT22;63793;57.632;18.292;2023-03-26T04:01:41;2.70;99.90
37844;DHT22;63793;57.632;18.292;2023-03-26T04:04:16;2.60;99.90
37844;DHT22;63793;57.632;18.292;2023-03-26T04:06:53;2.70;99.90
37844;DHT22;63793;57.632;18.292;2023-03-26T04:09:20;2.70;99.90
37844;DHT22;63793;57.632;18.292;2023-03-26T04:11:48;2.60;99.90
37844;DHT22;63793;57.632;18.292;2023-03-26T04:14:38;2.70;99.90
37844;DHT22;63793;57.632;18.292;2023-03-26T04:17:17;2.60;99.90
37844;DHT22;63793;57.632;18.292;2023-03-26T04:19:48;2.60;99.90
37844;DHT22;63793;57.632;18.292;2023-03-26T04:22:17;2.60;99.90
37844;DHT22;63793;57.632;18.292;2023-03-26T04:24:53;2.50;99.90
37844;DHT22;63793;57.632;18.292;2023-03-26T04:27:35;2.50;99.90
37844;DHT22;63793;57.632;18.292;2023-03-26T04:30:16;2.50;99.90
37844;DHT22;63793;57.632;18.292;2023-03-26T04:32:52;2.50;99.90
37844;DHT22;63793;57.632;18.292;2023-03-26T04:35:20;2.50;99.90
37844;DHT22;63793;57.632;18.292;2023-03-26T04:37:52;2.50;99.90
37844;DHT22;63793;57.632;18.292;2023-03-26T04:40:33;2.50;99.90
37844;DHT22;63793;57.632;18.292;2023-03-26T04:43:00;2.50;99.90
37844;DHT22;63793;57.632;18.292;2023-03-26T04:45:59;2.50;99.90
37844;DHT22;63793;57.632;18.292;2023-03-26T04:48:32;2.50;99.90
37844;DHT22;63793;57.632;18.292;2023-03-26T04:51:00;2.50;99.90
37844;DHT22;63793;57.632;18.292;2023-03-26T04:53:27;2.50;99.90
37844;DHT22;63793;57.632;18.292;2023-03-26T04:56:24;2.50;99.90
37844;DHT22;63793;57.632;18.292;2023-03-26T04:59:29;2.50;99.90
37844;DHT22;63793;57.632;18.292;2023-03-26T05:02:04;2.40;99.90
37844;DHT22;63793;57.632;18.292;2023-03-26T05:04:41;2.40;99.90
37844;DHT22;63793;57.632;18.292;2023-03-26T05:07:10;2.40;99.90
37844;DHT22;63793;57.632;18.292;2023-03-26T05:09:45;2.40;99.90
37844;DHT22;63793;57.632;18.292;2023-03-26T05:12:21;2.40;99.90
37844;DHT22;63793;57.632;18.292;2023-03-26T05:14:56;2.40;99.90
37844;DHT22;63793;57.632;18.292;2023-03-26T05:17:46;2.30;99.90
37844;DHT22;63793;57.632;18.292;2023-03-26T05:20:37;2.40;99.90
37844;DHT22;63793;57.632;18.292;2023-03-26T05:23:06;2.40;99.90
37844;DHT22;63793;57.632;18.292;2023-03-26T05:25:56;2.40;99.90
37844;DHT22;63793;57.632;18.292;2023-03-26T05:28:24;2.30;99.90
37844;DHT22;63793;57.632;18.292;2023-03-26T05:30:59;2.30;99.90
37844;DHT22;63793;57.632;18.292;2023-03-26T05:33:30;2.30;99.90
37844;DHT22;63793;57.632;18.292;2023-03-26T05:36:05;2.30;99.90
37844;DHT22;63793;57.632;18.292;2023-03-26T05:38:33;2.30;99.90
37844;DHT22;63793;57.632;18.292;2023-03-26T05:41:04;2.30;99.90
37844;DHT22;63793;57.632;18.292;2023-03-26T05:43:33;2.30;99.90
37844;DHT22;63793;57.632;18.292;2023-03-26T05:46:19;2.30;99.90
37844;DHT22;63793;57.632;18.292;2023-03-26T05:48:48;2.30;99.90
37844;DHT22;63793;57.632;18.292;2023-03-26T05:51:15;2.30;99.90
37844;DHT22;63793;57.632;18.292;2023-03-26T05:53:49;2.30;99.90
37844;DHT22;63793;57.632;18.292;2023-03-26T05:56:41;2.30;99.90
37844;DHT22;63793;57.632;18.292;2023-03-26T05:59:27;2.30;99.90
37844;DHT22;63793;57.632;18.292;2023-03-26T06:02:13;2.30;99.90
37844;DHT22;63793;57.632;18.292;2023-03-26T06:05:02;2.30;99.90
37844;DHT22;63793;57.632;18.292;2023-03-26T06:07:46;2.30;99.90
37844;DHT22;63793;57.632;18.292;2023-03-26T06:10:17;2.30;99.90
37844;DHT22;63793;57.632;18.292;2023-03-26T06:12:45;2.30;99.90
37844;DHT22;63793;57.632;18.292;2023-03-26T06:15:12;2.30;99.90
37844;DHT22;63793;57.632;18.292;2023-03-26T06:17:47;2.30;99.90
37844;DHT22;63793;57.632;18.292;2023-03-26T06:20:32;2.30;99.90
37844;DHT22;63793;57.632;18.292;2023-03-26T06:23:05;2.30;99.90
37844;DHT22;63793;57.632;18.292;2023-03-26T06:26:01;2.30;99.90
37844;DHT22;63793;57.632;18.292;2023-03-26T06:28:46;2.30;99.90
37844;DHT22;63793;57.632;18.292;2023-03-26T06:31:32;2.30;99.90
37844;DHT22;63793;57.632;18.292;2023-03-26T06:34:18;2.30;99.90
37844;DHT22;63793;57.632;18.292;2023-03-26T06:36:44;2.20;99.90
37844;DHT22;63793;57.632;18.292;2023-03-26T06:39:14;2.20;99.90
37844;DHT22;63793;57.632;18.292;2023-03-26T06:41:51;2.20;99.90
37844;DHT22;63793;57.632;18.292;2023-03-26T06:44:33;2.10;99.90
37844;DHT22;63793;57.632;18.292;2023-03-26T06:47:19;2.10;99.90
37844;DHT22;63793;57.632;18.292;2023-03-26T06:49:48;2.10;99.90
37844;DHT22;63793;57.632;18.292;2023-03-26T06:52:33;2.10;99.90
37844;DHT22;63793;57.632;18.292;2023-03-26T06:55:23;2.10;99.90
37844;DHT22;63793;57.632;18.292;2023-03-26T06:58:11;2.10;99.90
37844;DHT22;63793;57.632;18.292;2023-03-26T07:01:04;2.10;99.90
37844;DHT22;63793;57.632;18.292;2023-03-26T07:03:50;2.10;99.90
37844;DHT22;63793;57.632;18.292;2023-03-26T07:06:35;2.10;99.90
37844;DHT22;63793;57.632;18.292;2023-03-26T07:09:21;2.10;99.90
37844;DHT22;63793;57.632;18.292;2023-03-26T07:12:06;2.10;99.90
37844;DHT22;63793;57.632;18.292;2023-03-26T07:14:52;2.10;99.90
37844;DHT22;63793;57.632;18.292;2023-03-26T07:17:54;2.10;99.90
37844;DHT22;63793;57.632;18.292;2023-03-26T07:20:26;2.10;99.90
37844;DHT22;63793;57.632;18.292;2023-03-26T07:22:53;2.10;99.90
37844;DHT22;63793;57.632;18.292;2023-03-26T07:25:56;2.10;99.90
37844;DHT22;63793;57.632;18.292;2023-03-26T07:28:48;2.10;99.90
37844;DHT22;63793;57.632;18.292;2023-03-26T07:32:06;2.10;99.90
37844;DHT22;63793;57.632;18.292;2023-03-26T07:44:20;2.30;99.90
37844;DHT22;63793;57.632;18.292;2023-03-26T07:47:26;2.30;99.90
37844;DHT22;63793;57.632;18.292;2023-03-26T07:50:22;2.20;99.90
37844;DHT22;63793;57.632;18.292;2023-03-26T07:52:58;2.20;99.90
37844;DHT22;63793;57.632;18.292;2023-03-26T07:55:30;2.10;99.90
37844;DHT22;63793;57.632;18.292;2023-03-26T08:08:18;2.30;99.90
37844;DHT22;63793;57.632;18.292;2023-03-26T08:11:24;2.40;99.90
37844;DHT22;63793;57.632;18.292;2023-03-26T08:22:15;2.40;99.90
37844;DHT22;63793;57.632;18.292;2023-03-26T08:27:39;2.40;99.90
37844;DHT22;63793;57.632;18.292;2023-03-26T08:30:16;2.40;99.90
37844;DHT22;63793;57.632;18.292;2023-03-26T08:32:53;2.40;99.90
37844;DHT22;63793;57.632;18.292;2023-03-26T08:35:23;2.40;99.90
37844;DHT22;63793;57.632;18.292;2023-03-26T08:37:50;2.50;99.90
37844;DHT22;63793;57.632;18.292;2023-03-26T08:43:30;2.40;99.90
37844;DHT22;63793;57.632;18.292;2023-03-26T08:46:36;2.40;99.90
37844;DHT22;63793;57.632;18.292;2023-03-26T09:36:34;2.80;99.90
37844;DHT22;63793;57.632;18.292;2023-03-26T09:39:34;2.80;99.90
37844;DHT22;63793;57.632;18.292;2023-03-26T09:42:16;2.80;99.90
37844;DHT22;63793;57.632;18.292;2023-03-26T09:55:57;2.60;99.90
37844;DHT22;63793;57.632;18.292;2023-03-26T10:12:08;2.40;99.90
37844;DHT22;63793;57.632;18.292;2023-03-26T10:17:36;2.30;99.90
37844;DHT22;63793;57.632;18.292;2023-03-26T10:20:15;2.40;99.90
37844;DHT22;63793;57.632;18.292;2023-03-26T10:25:31;2.40;99.90
37844;DHT22;63793;57.632;18.292;2023-03-26T10:28:12;2.40;99.90
37844;DHT22;63793;57.632;18.292;2023-03-26T10:45:16;2.70;99.90
37844;DHT22;63793;57.632;18.292;2023-03-26T10:53:28;2.80;99.90
37844;DHT22;63793;57.632;18.292;2023-03-26T10:58:40;2.90;99.90
37844;DHT22;63793;57.632;18.292;2023-03-26T11:01:31;3.00;99.90
37844;DHT22;63793;57.632;18.292;2023-03-26T11:10:01;3.00;99.90
37844;DHT22;63793;57.632;18.292;2023-03-26T11:15:32;3.00;99.90
37844;DHT22;63793;57.632;18.292;2023-03-26T11:18:21;3.10;99.90
37844;DHT22;63793;57.632;18.292;2023-03-26T11:21:22;3.00;99.90
37844;DHT22;63793;57.632;18.292;2023-03-26T11:26:55;3.00;99.90
37844;DHT22;63793;57.632;18.292;2023-03-26T11:29:48;3.00;99.90
37844;DHT22;63793;57.632;18.292;2023-03-26T11:32:22;2.90;99.90
37844;DHT22;63793;57.632;18.292;2023-03-26T11:35:13;2.90;99.90
37844;DHT22;63793;57.632;18.292;2023-03-26T11:37:44;2.90;99.90
37844;DHT22;63793;57.632;18.292;2023-03-26T11:40:26;2.90;99.90
37844;DHT22;63793;57.632;18.292;2023-03-26T11:43:06;2.90;99.90
37844;DHT22;63793;57.632;18.292;2023-03-26T11:45:37;2.90;99.90
37844;DHT22;63793;57.632;18.292;2023-03-26T11:48:13;2.80;99.90
37844;DHT22;63793;57.632;18.292;2023-03-26T11:50:52;2.80;99.90
37844;DHT22;63793;57.632;18.292;2023-03-26T11:53:23;2.80;99.90
37844;DHT22;63793;57.632;18.292;2023-03-26T11:56:10;2.80;99.90
37844;DHT22;63793;57.632;18.292;2023-03-26T12:01:25;2.70;99.90
37844;DHT22;63793;57.632;18.292;2023-03-26T12:04:04;2.70;99.90
37844;DHT22;63793;57.632;18.292;2023-03-26T12:06:32;2.70;99.90
37844;DHT22;63793;57.632;18.292;2023-03-26T12:09:00;2.80;99.90
37844;DHT22;63793;57.632;18.292;2023-03-26T12:11:29;2.80;99.90
37844;DHT22;63793;57.632;18.292;2023-03-26T12:14:02;2.70;99.90
37844;DHT22;63793;57.632;18.292;2023-03-26T12:16:30;2.70;99.90
37844;DHT22;63793;57.632;18.292;2023-03-26T12:19:04;2.70;99.90
37844;DHT22;63793;57.632;18.292;2023-03-26T12:21:49;2.60;99.90
37844;DHT22;63793;57.632;18.292;2023-03-26T12:24:28;2.70;99.90
37844;DHT22;63793;57.632;18.292;2023-03-26T12:27:20;2.70;99.90
37844;DHT22;63793;57.632;18.292;2023-03-26T12:29:51;2.60;99.90
37844;DHT22;63793;57.632;18.292;2023-03-26T12:32:31;2.70;99.90
37844;DHT22;63793;57.632;18.292;2023-03-26T12:35:26;2.60;99.90
37844;DHT22;63793;57.632;18.292;2023-03-26T12:41:10;2.60;99.90
37844;DHT22;63793;57.632;18.292;2023-03-26T12:44:27;2.50;99.90
37844;DHT22;63793;57.632;18.292;2023-03-26T12:47:29;2.50;99.90
37844;DHT22;63793;57.632;18.292;2023-03-26T12:50:19;2.50;99.90
37844;DHT22;63793;57.632;18.292;2023-03-26T12:53:34;2.50;99.90
37844;DHT22;63793;57.632;18.292;2023-03-26T12:56:17;2.40;99.90
37844;DHT22;63793;57.632;18.292;2023-03-26T12:59:00;2.40;99.90
37844;DHT22;63793;57.632;18.292;2023-03-26T13:15:49;2.40;99.90
37844;DHT22;63793;57.632;18.292;2023-03-26T13:18:24;2.30;99.90
37844;DHT22;63793;57.632;18.292;2023-03-26T13:21:18;2.30;99.90
37844;DHT22;63793;57.632;18.292;2023-03-26T13:32:00;2.20;99.90
37844;DHT22;63793;57.632;18.292;2023-03-26T13:37:24;2.30;99.90
37844;DHT22;63793;57.632;18.292;2023-03-26T13:45:54;2.30;99.90
37844;DHT22;63793;57.632;18.292;2023-03-26T13:48:25;2.20;99.90
37844;DHT22;63793;57.632;18.292;2023-03-26T13:51:06;2.20;99.90
37844;DHT22;63793;57.632;18.292;2023-03-26T13:54:04;2.20;99.90
37844;DHT22;63793;57.632;18.292;2023-03-26T13:56:39;2.20;99.90
37844;DHT22;63793;57.632;18.292;2023-03-26T13:59:25;2.20;99.90
37844;DHT22;63793;57.632;18.292;2023-03-26T14:05:05;2.10;99.90
37844;DHT22;63793;57.632;18.292;2023-03-26T14:07:54;2.10;99.90
37844;DHT22;63793;57.632;18.292;2023-03-26T14:10:26;2.10;99.90
37844;DHT22;63793;57.632;18.292;2023-03-26T14:13:15;2.10;99.90
37844;DHT22;63793;57.632;18.292;2023-03-26T14:16:01;2.10;99.90
37844;DHT22;63793;57.632;18.292;2023-03-26T14:35:35;1.90;99.90
37844;DHT22;63793;57.632;18.292;2023-03-26T14:40:57;1.90;99.90
37844;DHT22;63793;57.632;18.292;2023-03-26T14:44:03;1.90;99.90
37844;DHT22;63793;57.632;18.292;2023-03-26T14:46:55;1.90;99.90
37844;DHT22;63793;57.632;18.292;2023-03-26T14:52:46;1.80;99.90
37844;DHT22;63793;57.632;18.292;2023-03-26T15:01:24;1.70;99.90
37844;DHT22;63793;57.632;18.292;2023-03-26T15:16:10;1.80;99.90
37844;DHT22;63793;57.632;18.292;2023-03-26T15:35:18;1.60;99.90
37844;DHT22;63793;57.632;18.292;2023-03-26T15:40:44;1.60;99.90
37844;DHT22;63793;57.632;18.292;2023-03-26T15:43:14;1.60;99.90
37844;DHT22;63793;57.632;18.292;2023-03-26T15:48:21;1.60;99.90
37844;DHT22;63793;57.632;18.292;2023-03-26T16:07:03;1.50;99.90
37844;DHT22;63793;57.632;18.292;2023-03-26T16:09:56;1.50;99.90
37844;DHT22;63793;57.632;18.292;2023-03-26T16:12:33;1.50;99.90
37844;DHT22;63793;57.632;18.292;2023-03-26T16:29:23;1.40;99.90
37844;DHT22;63793;57.632;18.292;2023-03-26T16:34:44;1.30;99.90
37844;DHT22;63793;57.632;18.292;2023-03-26T16:51:26;1.20;99.90
37844;DHT22;63793;57.632;18.292;2023-03-26T17:09:14;1.00;99.90
37844;DHT22;63793;57.632;18.292;2023-03-26T17:11:29;1.00;99.90
37844;DHT22;63793;57.632;18.292;2023-03-26T17:16:46;1.00;99.90
37844;DHT22;63793;57.632;18.292;2023-03-26T17:24:51;0.90;99.90
37844;DHT22;63793;57.632;18.292;2023-03-26T17:33:37;0.90;99.90
37844;DHT22;63793;57.632;18.292;2023-03-26T17:41:06;0.90;99.90
37844;DHT22;63793;57.632;18.292;2023-03-26T17:43:47;0.80;99.90
37844;DHT22;63793;57.632;18.292;2023-03-26T17:51:43;0.70;99.90
37844;DHT22;63793;57.632;18.292;2023-03-26T17:54:23;0.70;99.90
37844;DHT22;63793;57.632;18.292;2023-03-26T17:56:52;0.70;99.90
37844;DHT22;63793;57.632;18.292;2023-03-26T17:59:24;0.70;99.90
37844;DHT22;63793;57.632;18.292;2023-03-26T18:01:56;0.70;99.90
37844;DHT22;63793;57.632;18.292;2023-03-26T18:04:36;0.70;99.90
37844;DHT22;63793;57.632;18.292;2023-03-26T18:15:32;0.70;99.90
37844;DHT22;63793;57.632;18.292;2023-03-26T18:18:20;0.70;99.90
37844;DHT22;63793;57.632;18.292;2023-03-26T18:20:48;0.60;99.90
37844;DHT22;63793;57.632;18.292;2023-03-26T18:23:38;0.70;99.90
37844;DHT22;63793;57.632;18.292;2023-03-26T18:26:16;0.60;99.90
37844;DHT22;63793;57.632;18.292;2023-03-26T18:28:50;0.60;99.90
37844;DHT22;63793;57.632;18.292;2023-03-26T18:31:22;0.60;99.90
37844;DHT22;63793;57.632;18.292;2023-03-26T18:33:54;0.60;99.90
37844;DHT22;63793;57.632;18.292;2023-03-26T18:36:25;0.60;99.90
37844;DHT22;63793;57.632;18.292;2023-03-26T18:38:59;0.60;99.90
37844;DHT22;63793;57.632;18.292;2023-03-26T18:41:34;0.60;99.90
37844;DHT22;63793;57.632;18.292;2023-03-26T18:44:15;0.60;99.90
37844;DHT22;63793;57.632;18.292;2023-03-26T18:46:44;0.60;99.90
37844;DHT22;63793;57.632;18.292;2023-03-26T18:49:12;0.50;99.90
37844;DHT22;63793;57.632;18.292;2023-03-26T18:51:40;0.60;99.90
37844;DHT22;63793;57.632;18.292;2023-03-26T18:54:23;0.50;99.90
37844;DHT22;63793;57.632;18.292;2023-03-26T18:56:50;0.60;99.90
37844;DHT22;63793;57.632;18.292;2023-03-26T18:59:29;0.60;99.90
37844;DHT22;63793;57.632;18.292;2023-03-26T19:01:58;0.50;99.90
37844;DHT22;63793;57.632;18.292;2023-03-26T19:04:30;0.40;99.90
37844;DHT22;63793;57.632;18.292;2023-03-26T19:07:00;0.40;99.90
37844;DHT22;63793;57.632;18.292;2023-03-26T19:09:28;0.50;99.90
37844;DHT22;63793;57.632;18.292;2023-03-26T19:12:05;0.50;99.90
37844;DHT22;63793;57.632;18.292;2023-03-26T19:14:38;0.40;99.90
37844;DHT22;63793;57.632;18.292;2023-03-26T19:17:16;0.50;99.90
37844;DHT22;63793;57.632;18.292;2023-03-26T19:19:43;0.50;99.90
37844;DHT22;63793;57.632;18.292;2023-03-26T19:22:10;0.50;99.90
37844;DHT22;63793;57.632;18.292;2023-03-26T19:24:39;0.40;99.90
37844;DHT22;63793;57.632;18.292;2023-03-26T19:27:07;0.40;99.90
37844;DHT22;63793;57.632;18.292;2023-03-26T19:29:35;0.40;99.90
37844;DHT22;63793;57.632;18.292;2023-03-26T19:32:14;0.30;99.90
37844;DHT22;63793;57.632;18.292;2023-03-26T19:34:43;0.30;99.90
37844;DHT22;63793;57.632;18.292;2023-03-26T19:37:22;0.40;99.90
37844;DHT22;63793;57.632;18.292;2023-03-26T19:39:52;0.30;99.90
37844;DHT22;63793;57.632;18.292;2023-03-26T19:42:27;0.40;99.90
37844;DHT22;63793;57.632;18.292;2023-03-26T19:45:33;0.40;99.90
37844;DHT22;63793;57.632;18.292;2023-03-26T19:48:00;0.40;99.90
37844;DHT22;63793;57.632;18.292;2023-03-26T19:50:51;0.30;99.90
37844;DHT22;63793;57.632;18.292;2023-03-26T19:53:28;0.30;99.90
37844;DHT22;63793;57.632;18.292;2023-03-26T19:56:02;0.30;99.90
37844;DHT22;63793;57.632;18.292;2023-03-26T19:58:29;0.30;99.90
37844;DHT22;63793;57.632;18.292;2023-03-26T20:00:56;0.40;99.90
37844;DHT22;63793;57.632;18.292;2023-03-26T20:03:34;0.40;99.90
37844;DHT22;63793;57.632;18.292;2023-03-26T20:06:02;0.40;99.90
37844;DHT22;63793;57.632;18.292;2023-03-26T20:08:29;0.40;99.90
37844;DHT22;63793;57.632;18.292;2023-03-26T20:10:56;0.40;99.90
37844;DHT22;63793;57.632;18.292;2023-03-26T20:13:24;0.40;99.90
37844;DHT22;63793;57.632;18.292;2023-03-26T20:15:57;0.30;99.90
37844;DHT22;63793;57.632;18.292;2023-03-26T20:18:33;0.30;99.90
37844;DHT22;63793;57.632;18.292;2023-03-26T20:21:00;0.30;99.90
37844;DHT22;63793;57.632;18.292;2023-03-26T20:23:27;0.30;99.90
37844;DHT22;63793;57.632;18.292;2023-03-26T20:25:54;0.30;99.90
37844;DHT22;63793;57.632;18.292;2023-03-26T20:28:22;0.30;99.90
37844;DHT22;63793;57.632;18.292;2023-03-26T20:30:50;0.30;99.90
37844;DHT22;63793;57.632;18.292;2023-03-26T20:33:24;0.30;99.90
37844;DHT22;63793;57.632;18.292;2023-03-26T20:35:52;0.20;99.90
37844;DHT22;63793;57.632;18.292;2023-03-26T20:38:20;0.20;99.90
37844;DHT22;63793;57.632;18.292;2023-03-26T20:40:58;0.30;99.90
37844;DHT22;63793;57.632;18.292;2023-03-26T20:43:25;0.30;99.90
37844;DHT22;63793;57.632;18.292;2023-03-26T20:45:55;0.30;99.90
37844;DHT22;63793;57.632;18.292;2023-03-26T20:48:24;0.30;99.90
37844;DHT22;63793;57.632;18.292;2023-03-26T20:50:53;0.30;99.90
37844;DHT22;63793;57.632;18.292;2023-03-26T20:53:20;0.30;99.90
37844;DHT22;63793;57.632;18.292;2023-03-26T20:55:47;0.40;99.90
37844;DHT22;63793;57.632;18.292;2023-03-26T20:58:18;0.30;99.90
37844;DHT22;63793;57.632;18.292;2023-03-26T21:01:00;0.30;99.90
37844;DHT22;63793;57.632;18.292;2023-03-26T21:03:28;0.30;99.90
37844;DHT22;63793;57.632;18.292;2023-03-26T21:05:59;0.30;99.90
37844;DHT22;63793;57.632;18.292;2023-03-26T21:08:27;0.30;99.90
37844;DHT22;63793;57.632;18.292;2023-03-26T21:11:01;0.20;99.90
37844;DHT22;63793;57.632;18.292;2023-03-26T21:13:42;0.20;99.90
37844;DHT22;63793;57.632;18.292;2023-03-26T21:16:11;0.20;99.90
37844;DHT22;63793;57.632;18.292;2023-03-26T21:18:39;0.20;99.90
37844;DHT22;63793;57.632;18.292;2023-03-26T21:24:23;0.10;99.90
37844;DHT22;63793;57.632;18.292;2023-03-26T21:27:16;0.10;99.90
37844;DHT22;63793;57.632;18.292;2023-03-26T21:29:45;0.10;99.90
37844;DHT22;63793;57.632;18.292;2023-03-26T21:32:13;0.10;99.90
37844;DHT22;63793;57.632;18.292;2023-03-26T21:34:40;0.10;99.90
37844;DHT22;63793;57.632;18.292;2023-03-26T21:37:23;0.10;99.90
37844;DHT22;63793;57.632;18.292;2023-03-26T21:39:50;0.10;99.90
37844;DHT22;63793;57.632;18.292;2023-03-26T21:42:18;0.10;99.90
37844;DHT22;63793;57.632;18.292;2023-03-26T21:44:45;0.10;99.90
37844;DHT22;63793;57.632;18.292;2023-03-26T21:47:12;0.10;99.90
37844;DHT22;63793;57.632;18.292;2023-03-26T21:49:39;0.10;99.90
37844;DHT22;63793;57.632;18.292;2023-03-26T21:52:10;0.00;99.90
37844;DHT22;63793;57.632;18.292;2023-03-26T21:54:41;0.10;99.90
37844;DHT22;63793;57.632;18.292;2023-03-26T21:57:25;0.00;99.90
37844;DHT22;63793;57.632;18.292;2023-03-26T22:00:08;0.00;99.90
37844;DHT22;63793;57.632;18.292;2023-03-26T22:05:42;0.00;99.90
37844;DHT22;63793;57.632;18.292;2023-03-26T22:11:00;-0.20;99.90
37844;DHT22;63793;57.632;18.292;2023-03-26T22:13:27;-0.20;99.90
37844;DHT22;63793;57.632;18.292;2023-03-26T22:15:54;-0.20;99.90
37844;DHT22;63793;57.632;18.292;2023-03-26T22:18:22;-0.20;99.90
37844;DHT22;63793;57.632;18.292;2023-03-26T22:20:51;-0.20;99.90
37844;DHT22;63793;57.632;18.292;2023-03-26T22:23:18;-0.20;99.90
37844;DHT22;63793;57.632;18.292;2023-03-26T22:25:46;-0.20;99.90
37844;DHT22;63793;57.632;18.292;2023-03-26T22:28:13;-0.20;99.90